Аэропорт: Полярный. Удачный

ICAO: UERP

METAR:
2022-06-26 10:00:00
UERP 261000Z 35004MPS 6000 -SHRA BKN007 OVC021CB 12/10 Q0994 RMK QFE701
METAR:
2022-06-26 08:00:00
TAF UERP 260800Z 2609/2709 04003G08MPS 7000 BKN020CB BKN100 TEMPO 2609/2615 34003G08MPS 3000 -SHRA HZ BKN010 BKN015CB OVC100